Time,TemperatureF,DewpointF,PressureIn,WindDirection,WindDirectionDegrees,WindSpeedMPH,WindSpeedGustMPH,Humidity,HourlyPrecipIn,Conditions,Clouds,dailyrainin,SoftwareType,DateUTC
2013-03-08 07:50:00,34.2,29.9,30.46,ENE,59,7.0,7.0,84,0.00,,,0.00,Wunderground v.1.15,2013-03-08 13:50:00,
2013-03-08 07:53:00,34.5,30.2,30.46,ENE,61,6.0,7.0,84,0.00,,,0.00,Wunderground v.1.15,2013-03-08 13:53:00,
2013-03-08 07:56:00,34.7,30.1,30.46,ENE,73,6.0,8.0,83,0.00,,,0.00,Wunderground v.1.15,2013-03-08 13:56:00,
2013-03-08 07:57:00,34.8,30.5,30.46,ENE,60,6.0,8.0,84,0.00,,,0.00,Wunderground v.1.15,2013-03-08 13:57:00,
2013-03-08 08:03:00,35.2,30.6,30.46,ENE,70,6.0,7.0,83,0.00,,,0.00,Wunderground v.1.15,2013-03-08 14:03:00,
2013-03-08 08:09:00,35.1,29.9,30.46,NE,38,8.0,10.0,81,0.00,,,0.00,Wunderground v.1.15,2013-03-08 14:09:00,
2013-03-08 08:15:00,35.3,30.4,30.47,ENE,74,9.0,13.0,82,0.00,,,0.00,Wunderground v.1.15,2013-03-08 14:15:00,
2013-03-08 08:20:00,36.1,31.4,30.47,ENE,71,9.0,13.0,83,0.00,,,0.00,Wunderground v.1.15,2013-03-08 14:20:00,
2013-03-08 08:25:00,36.1,30.8,30.47,ENE,57,9.0,10.0,81,0.00,,,0.00,Wunderground v.1.15,2013-03-08 14:25:00,
2013-03-08 08:30:00,36.6,31.6,30.47,NE,43,9.0,10.0,82,0.00,,,0.00,Wunderground v.1.15,2013-03-08 14:30:00,
2013-03-08 08:36:00,37.0,31.4,30.47,NE,44,8.0,11.0,80,0.00,,,0.00,Wunderground v.1.15,2013-03-08 14:36:00,
2013-03-08 08:42:00,37.3,31.4,30.47,ENE,70,7.0,7.0,79,0.00,,,0.00,Wunderground v.1.15,2013-03-08 14:42:00,
2013-03-08 08:48:00,37.4,31.2,30.47,East,90,7.0,10.0,78,0.00,,,0.00,Wunderground v.1.15,2013-03-08 14:48:00,
2013-03-08 08:53:00,37.8,31.6,30.47,ENE,67,8.0,11.0,78,0.00,,,0.00,Wunderground v.1.15,2013-03-08 14:53:00,
2013-03-08 08:59:00,38.4,32.1,30.47,East,96,8.0,11.0,78,0.00,,,0.00,Wunderground v.1.15,2013-03-08 14:59:00,
2013-03-08 09:05:00,39.0,31.7,30.47,ENE,65,7.0,10.0,75,0.00,,,0.00,Wunderground v.1.15,2013-03-08 15:05:00,
2013-03-08 09:10:00,39.2,31.9,30.48,East,94,8.0,8.0,75,0.00,,,0.00,Wunderground v.1.15,2013-03-08 15:10:00,
2013-03-08 09:15:00,39.0,31.4,30.48,ENE,57,8.0,13.0,74,0.00,,,0.00,Wunderground v.1.15,2013-03-08 15:15:00,
2013-03-08 09:24:00,39.4,31.5,30.48,ENE,69,9.0,9.0,73,0.00,,,0.00,Wunderground v.1.15,2013-03-08 15:24:00,
2013-03-08 09:29:00,39.7,31.8,30.48,East,80,7.0,9.0,73,0.00,,,0.00,Wunderground v.1.15,2013-03-08 15:29:00,
2013-03-08 09:34:00,39.8,31.2,30.48,East,82,6.0,10.0,71,0.00,,,0.00,Wunderground v.1.15,2013-03-08 15:34:00,
2013-03-08 09:39:00,40.0,31.0,30.47,ENE,62,6.0,10.0,70,0.00,,,0.00,Wunderground v.1.15,2013-03-08 15:39:00,
2013-03-08 09:45:00,40.5,31.5,30.48,ENE,73,6.0,8.0,70,0.00,,,0.00,Wunderground v.1.15,2013-03-08 15:45:00,
2013-03-08 09:50:00,40.7,31.7,30.48,East,80,5.0,6.0,70,0.00,,,0.00,Wunderground v.1.15,2013-03-08 15:50:00,
2013-03-08 09:55:00,41.1,32.4,30.48,NE,54,5.0,9.0,71,0.00,,,0.00,Wunderground v.1.15,2013-03-08 15:55:00,
2013-03-08 10:00:00,41.6,32.9,30.48,ENE,71,6.0,6.0,71,0.00,,,0.00,Wunderground v.1.15,2013-03-08 16:00:00,
2013-03-08 10:06:00,41.7,33.0,30.48,East,94,4.0,6.0,71,0.00,,,0.00,Wunderground v.1.15,2013-03-08 16:06:00,
2013-03-08 10:12:00,42.5,33.0,30.48,ENE,64,6.0,12.0,69,0.00,,,0.00,Wunderground v.1.15,2013-03-08 16:12:00,
2013-03-08 10:17:00,42.8,33.3,30.48,ENE,68,7.0,12.0,69,0.00,,,0.00,Wunderground v.1.15,2013-03-08 16:17:00,
2013-03-08 10:22:00,42.8,33.0,30.47,ENE,59,6.0,7.0,68,0.00,,,0.00,Wunderground v.1.15,2013-03-08 16:22:00,
2013-03-08 10:27:00,43.2,33.0,30.47,ENE,71,7.0,10.0,67,0.00,,,0.00,Wunderground v.1.15,2013-03-08 16:27:00,
2013-03-08 10:32:00,43.2,33.3,30.47,NE,43,7.0,10.0,68,0.00,,,0.00,Wunderground v.1.15,2013-03-08 16:32:00,
2013-03-08 10:38:00,44.0,34.1,30.47,ENE,65,7.0,10.0,68,0.00,,,0.00,Wunderground v.1.15,2013-03-08 16:38:00,
2013-03-08 10:43:00,44.2,33.6,30.47,ENE,71,8.0,9.0,66,0.00,,,0.00,Wunderground v.1.15,2013-03-08 16:43:00,
2013-03-08 10:48:00,44.5,33.8,30.48,ENE,59,7.0,9.0,66,0.00,,,0.00,Wunderground v.1.15,2013-03-08 16:48:00,
2013-03-08 10:53:00,44.5,34.6,30.48,NE,49,6.0,8.0,68,0.00,,,0.00,Wunderground v.1.15,2013-03-08 16:53:00,
2013-03-08 10:58:00,44.6,33.9,30.48,NE,40,5.0,8.0,66,0.00,,,0.00,Wunderground v.1.15,2013-03-08 16:58:00,
2013-03-08 11:04:00,45.1,34.4,30.47,ENE,63,5.0,7.0,66,0.00,,,0.00,Wunderground v.1.15,2013-03-08 17:04:00,
2013-03-08 11:09:00,45.0,33.5,30.48,ESE,113,5.0,7.0,64,0.00,,,0.00,Wunderground v.1.15,2013-03-08 17:09:00,
2013-03-08 11:14:00,45.1,34.0,30.48,NE,51,4.0,5.0,65,0.00,,,0.00,Wunderground v.1.15,2013-03-08 17:14:00,
2013-03-08 11:20:00,45.4,32.7,30.48,East,81,4.0,4.0,61,0.00,,,0.00,Wunderground v.1.15,2013-03-08 17:20:00,
2013-03-08 11:26:00,45.9,33.6,30.47,ENE,63,4.0,8.0,62,0.00,,,0.00,Wunderground v.1.15,2013-03-08 17:26:00,
2013-03-08 11:31:00,46.3,33.6,30.46,NE,43,5.0,5.0,61,0.00,,,0.00,Wunderground v.1.15,2013-03-08 17:31:00,
2013-03-08 11:36:00,47.0,35.0,30.45,NE,53,5.0,9.0,63,0.00,,,0.00,Wunderground v.1.15,2013-03-08 17:36:00,
2013-03-08 11:41:00,47.5,35.9,30.44,NE,53,7.0,12.0,64,0.00,,,0.00,Wunderground v.1.15,2013-03-08 17:41:00,
2013-03-08 11:47:00,47.5,33.9,30.43,NE,51,9.0,12.0,59,0.00,,,0.00,Wunderground v.1.15,2013-03-08 17:47:00,
2013-03-08 11:53:00,47.6,35.6,30.43,NE,53,8.0,11.0,63,0.00,,,0.00,Wunderground v.1.15,2013-03-08 17:53:00,
2013-03-08 11:59:00,47.8,35.0,30.43,NE,51,9.0,13.0,61,0.00,,,0.00,Wunderground v.1.15,2013-03-08 17:59:00,
2013-03-08 12:05:00,48.2,34.5,30.43,NE,40,9.0,10.0,59,0.00,,,0.00,Wunderground v.1.15,2013-03-08 18:05:00,
2013-03-08 12:10:00,48.7,35.4,30.42,East,95,8.0,8.0,60,0.00,,,0.00,Wunderground v.1.15,2013-03-08 18:10:00,
2013-03-08 12:15:00,49.4,35.7,30.43,ENE,66,8.0,11.0,59,0.00,,,0.00,Wunderground v.1.15,2013-03-08 18:15:00,
2013-03-08 12:21:00,49.3,35.6,30.42,ENE,61,8.0,8.0,59,0.00,,,0.00,Wunderground v.1.15,2013-03-08 18:21:00,
2013-03-08 12:26:00,49.2,34.2,30.42,ENE,58,8.0,13.0,56,0.00,,,0.00,Wunderground v.1.15,2013-03-08 18:26:00,
2013-03-08 12:31:00,49.3,34.7,30.42,ENE,74,9.0,9.0,57,0.00,,,0.00,Wunderground v.1.15,2013-03-08 18:31:00,
2013-03-08 12:36:00,49.5,35.3,30.42,ENE,70,9.0,12.0,58,0.00,,,0.00,Wunderground v.1.15,2013-03-08 18:36:00,
2013-03-08 12:42:00,49.6,36.7,30.42,ENE,72,7.0,8.0,61,0.00,,,0.00,Wunderground v.1.15,2013-03-08 18:42:00,
2013-03-08 12:47:00,49.7,35.5,30.41,ENE,68,5.0,9.0,58,0.00,,,0.00,Wunderground v.1.15,2013-03-08 18:47:00,
2013-03-08 12:53:00,50.4,35.7,30.41,NNE,20,7.0,8.0,57,0.00,,,0.00,Wunderground v.1.15,2013-03-08 18:53:00,
2013-03-08 12:58:00,50.5,35.4,30.41,ENE,57,6.0,8.0,56,0.00,,,0.00,Wunderground v.1.15,2013-03-08 18:58:00,
2013-03-08 13:03:00,50.9,35.3,30.41,NE,42,5.0,7.0,55,0.00,,,0.00,Wunderground v.1.15,2013-03-08 19:03:00,
2013-03-08 13:08:00,51.4,34.8,30.40,ENE,61,4.0,7.0,53,0.00,,,0.00,Wunderground v.1.15,2013-03-08 19:08:00,
2013-03-08 13:13:00,51.7,36.5,30.39,ENE,63,6.0,9.0,56,0.00,,,0.00,Wunderground v.1.15,2013-03-08 19:13:00,
2013-03-08 13:18:00,51.7,36.5,30.39,East,85,7.0,11.0,56,0.00,,,0.00,Wunderground v.1.15,2013-03-08 19:18:00,
2013-03-08 13:23:00,52.0,35.9,30.39,ENE,75,6.0,9.0,54,0.00,,,0.00,Wunderground v.1.15,2013-03-08 19:23:00,
2013-03-08 13:29:00,52.1,35.9,30.39,NE,56,6.0,9.0,54,0.00,,,0.00,Wunderground v.1.15,2013-03-08 19:29:00,
2013-03-08 13:34:00,51.8,36.6,30.39,ENE,68,6.0,9.0,56,0.00,,,0.00,Wunderground v.1.15,2013-03-08 19:34:00,
2013-03-08 13:39:00,51.6,35.0,30.38,ENE,63,7.0,11.0,53,0.00,,,0.00,Wunderground v.1.15,2013-03-08 19:39:00,
2013-03-08 13:45:00,52.1,36.4,30.37,NE,55,7.0,9.0,55,0.00,,,0.00,Wunderground v.1.15,2013-03-08 19:45:00,
2013-03-08 13:50:00,52.6,35.9,30.37,East,86,8.0,8.0,53,0.00,,,0.00,Wunderground v.1.15,2013-03-08 19:50:00,
2013-03-08 13:56:00,53.1,35.9,30.36,ENE,70,8.0,9.0,52,0.00,,,0.00,Wunderground v.1.15,2013-03-08 19:56:00,
2013-03-08 14:02:00,53.1,36.4,30.36,East,92,8.0,9.0,53,0.00,,,0.00,Wunderground v.1.15,2013-03-08 20:02:00,
2013-03-08 14:07:00,52.8,34.7,30.36,ENE,78,7.0,10.0,50,0.00,,,0.00,Wunderground v.1.15,2013-03-08 20:07:00,
2013-03-08 14:13:00,53.1,34.9,30.37,NE,47,7.0,7.0,50,0.00,,,0.00,Wunderground v.1.15,2013-03-08 20:13:00,
2013-03-08 14:19:00,53.4,33.7,30.36,ENE,70,7.0,10.0,47,0.00,,,0.00,Wunderground v.1.15,2013-03-08 20:19:00,
2013-03-08 14:25:00,53.5,34.3,30.36,ENE,73,8.0,9.0,48,0.00,,,0.00,Wunderground v.1.15,2013-03-08 20:25:00,
2013-03-08 14:31:00,53.6,34.9,30.36,East,86,6.0,6.0,49,0.00,,,0.00,Wunderground v.1.15,2013-03-08 20:31:00,
2013-03-08 14:36:00,53.7,34.5,30.36,ENE,71,5.0,9.0,48,0.00,,,0.00,Wunderground v.1.15,2013-03-08 20:36:00,
2013-03-08 14:41:00,53.5,33.7,30.36,ENE,65,5.0,7.0,47,0.00,,,0.00,Wunderground v.1.15,2013-03-08 20:41:00,
2013-03-08 14:46:00,53.9,34.6,30.36,ENE,65,5.0,11.0,48,0.00,,,0.00,Wunderground v.1.15,2013-03-08 20:46:00,
2013-03-08 14:51:00,53.7,33.9,30.36,East,101,7.0,7.0,47,0.00,,,0.00,Wunderground v.1.15,2013-03-08 20:51:00,
2013-03-08 14:56:00,53.6,33.3,30.36,ENE,74,6.0,7.0,46,0.00,,,0.00,Wunderground v.1.15,2013-03-08 20:56:00,
2013-03-08 15:02:00,53.6,33.8,30.35,ENE,73,6.0,8.0,47,0.00,,,0.00,Wunderground v.1.15,2013-03-08 21:02:00,
2013-03-08 15:07:00,53.6,33.8,30.35,NE,51,7.0,11.0,47,0.00,,,0.00,Wunderground v.1.15,2013-03-08 21:07:00,
2013-03-08 15:13:00,53.7,33.4,30.35,NE,42,8.0,9.0,46,0.00,,,0.00,Wunderground v.1.15,2013-03-08 21:13:00,
2013-03-08 15:18:00,53.7,31.7,30.35,ENE,76,6.0,9.0,43,0.00,,,0.00,Wunderground v.1.15,2013-03-08 21:18:00,
2013-03-08 15:23:00,53.7,33.4,30.35,East,84,5.0,6.0,46,0.00,,,0.00,Wunderground v.1.15,2013-03-08 21:23:00,
2013-03-08 15:29:00,53.6,32.8,30.35,ENE,66,4.0,6.0,45,0.00,,,0.00,Wunderground v.1.15,2013-03-08 21:29:00,
2013-03-08 15:35:00,54.1,33.8,30.34,ENE,65,5.0,13.0,46,0.00,,,0.00,Wunderground v.1.15,2013-03-08 21:35:00,
2013-03-08 15:41:00,53.9,34.1,30.34,NE,47,7.0,8.0,47,0.00,,,0.00,Wunderground v.1.15,2013-03-08 21:41:00,
2013-03-08 15:46:00,54.0,33.1,30.33,ENE,67,7.0,12.0,45,0.00,,,0.00,Wunderground v.1.15,2013-03-08 21:46:00,
2013-03-08 15:52:00,53.7,32.3,30.33,ENE,69,8.0,11.0,44,0.00,,,0.00,Wunderground v.1.15,2013-03-08 21:52:00,
2013-03-08 15:57:00,53.7,32.3,30.33,ENE,65,8.0,11.0,44,0.00,,,0.00,Wunderground v.1.15,2013-03-08 21:57:00,
2013-03-08 16:03:00,53.8,34.0,30.35,ENE,62,6.0,7.0,47,0.00,,,0.00,Wunderground v.1.15,2013-03-08 22:03:00,
2013-03-08 16:08:00,53.6,32.2,30.34,ENE,67,6.0,8.0,44,0.00,,,0.00,Wunderground v.1.15,2013-03-08 22:08:00,
2013-03-08 16:13:00,53.4,30.3,30.35,East,89,7.0,7.0,41,0.00,,,0.00,Wunderground v.1.15,2013-03-08 22:13:00,
2013-03-08 16:18:00,53.0,32.2,30.34,ENE,71,6.0,10.0,45,0.00,,,0.00,Wunderground v.1.15,2013-03-08 22:18:00,
2013-03-08 16:23:00,53.0,32.8,30.34,East,84,6.0,6.0,46,0.00,,,0.00,Wunderground v.1.15,2013-03-08 22:23:00,
2013-03-08 16:29:00,52.7,32.5,30.34,ENE,62,5.0,8.0,46,0.00,,,0.00,Wunderground v.1.15,2013-03-08 22:29:00,
2013-03-08 16:34:00,52.2,33.6,30.34,NE,52,4.0,5.0,49,0.00,,,0.00,Wunderground v.1.15,2013-03-08 22:34:00,
2013-03-08 16:39:00,51.8,32.2,30.34,ENE,65,4.0,7.0,47,0.00,,,0.00,Wunderground v.1.15,2013-03-08 22:39:00,
2013-03-08 16:44:00,51.7,32.6,30.35,ENE,72,5.0,5.0,48,0.00,,,0.00,Wunderground v.1.15,2013-03-08 22:44:00,
2013-03-08 16:49:00,52.0,32.9,30.34,ENE,71,4.0,5.0,48,0.00,,,0.00,Wunderground v.1.15,2013-03-08 22:49:00,
2013-03-08 16:55:00,52.1,33.5,30.34,East,86,3.0,5.0,49,0.00,,,0.00,Wunderground v.1.15,2013-03-08 22:55:00,
2013-03-08 17:00:00,51.9,33.8,30.34,ENE,74,4.0,4.0,50,0.00,,,0.00,Wunderground v.1.15,2013-03-08 23:00:00,
2013-03-08 17:06:00,51.5,33.5,30.34,ENE,78,3.0,4.0,50,0.00,,,0.00,Wunderground v.1.15,2013-03-08 23:06:00,
2013-03-08 17:11:00,51.1,32.1,30.34,ENE,59,3.0,4.0,48,0.00,,,0.00,Wunderground v.1.15,2013-03-08 23:11:00,
2013-03-08 17:16:00,50.8,32.8,30.35,East,94,3.0,4.0,50,0.00,,,0.00,Wunderground v.1.15,2013-03-08 23:16:00,
2013-03-08 17:22:00,50.1,31.2,30.35,ENE,68,3.0,3.0,48,0.00,,,0.00,Wunderground v.1.15,2013-03-08 23:22:00,
2013-03-08 17:29:00,49.2,31.8,30.36,East,82,2.0,3.0,51,0.00,,,0.00,Wunderground v.1.15,2013-03-08 23:29:00,
2013-03-08 17:35:00,48.2,30.9,30.36,ENE,77,2.0,3.0,51,0.00,,,0.00,Wunderground v.1.15,2013-03-08 23:35:00,
2013-03-08 17:41:00,47.4,31.1,30.35,ENE,71,3.0,3.0,53,0.00,,,0.00,Wunderground v.1.15,2013-03-08 23:41:00,
2013-03-08 17:47:00,46.6,31.3,30.35,ENE,65,3.0,4.0,55,0.00,,,0.00,Wunderground v.1.15,2013-03-08 23:47:00,
2013-03-08 17:52:00,46.0,30.7,30.35,ENE,61,4.0,5.0,55,0.00,,,0.00,Wunderground v.1.15,2013-03-08 23:52:00,
2013-03-08 17:57:00,45.7,30.4,30.34,ENE,65,4.0,5.0,55,0.00,,,0.00,Wunderground v.1.15,2013-03-08 23:57:00,
2013-03-08 18:02:00,45.3,30.5,30.34,ENE,57,3.0,4.0,56,0.00,,,0.00,Wunderground v.1.15,2013-03-09 00:02:00,
2013-03-08 18:07:00,45.1,30.3,30.35,ENE,61,3.0,4.0,56,0.00,,,0.00,Wunderground v.1.15,2013-03-09 00:07:00,
2013-03-08 18:13:00,44.9,30.1,30.35,ENE,65,3.0,4.0,56,0.00,,,0.00,Wunderground v.1.15,2013-03-09 00:13:00,
2013-03-08 18:18:00,44.5,29.8,30.35,NE,54,3.0,4.0,56,0.00,,,0.00,Wunderground v.1.15,2013-03-09 00:18:00,
2013-03-08 18:23:00,44.5,29.8,30.35,ENE,59,3.0,3.0,56,0.00,,,0.00,Wunderground v.1.15,2013-03-09 00:23:00,
2013-03-08 18:28:00,44.8,29.6,30.35,NE,53,3.0,4.0,55,0.00,,,0.00,Wunderground v.1.15,2013-03-09 00:28:00,
2013-03-08 18:33:00,44.5,29.8,30.34,NE,51,3.0,4.0,56,0.00,,,0.00,Wunderground v.1.15,2013-03-09 00:33:00,
2013-03-08 18:38:00,43.9,29.6,30.34,ENE,61,3.0,4.0,57,0.00,,,0.00,Wunderground v.1.15,2013-03-09 00:38:00,
2013-03-08 18:44:00,43.1,29.7,30.34,NE,53,3.0,3.0,59,0.00,,,0.00,Wunderground v.1.15,2013-03-09 00:44:00,
2013-03-08 18:49:00,42.7,29.8,30.34,NE,53,3.0,4.0,60,0.00,,,0.00,Wunderground v.1.15,2013-03-09 00:49:00,
2013-03-08 18:54:00,42.5,29.6,30.34,NE,51,3.0,4.0,60,0.00,,,0.00,Wunderground v.1.15,2013-03-09 00:54:00,
2013-03-08 19:00:00,42.7,29.4,30.34,ENE,63,3.0,3.0,59,0.00,,,0.00,Wunderground v.1.15,2013-03-09 01:00:00,
2013-03-08 19:06:00,43.0,29.6,30.34,NE,50,3.0,4.0,59,0.00,,,0.00,Wunderground v.1.15,2013-03-09 01:06:00,
2013-03-08 19:11:00,42.7,29.8,30.33,ENE,60,3.0,4.0,60,0.00,,,0.00,Wunderground v.1.15,2013-03-09 01:11:00,
2013-03-08 19:16:00,41.8,30.1,30.33,ENE,59,4.0,5.0,63,0.00,,,0.00,Wunderground v.1.15,2013-03-09 01:16:00,
2013-03-08 19:22:00,41.7,30.4,30.33,NE,55,4.0,5.0,64,0.00,,,0.00,Wunderground v.1.15,2013-03-09 01:22:00,
2013-03-08 19:27:00,41.6,30.3,30.33,ENE,57,4.0,5.0,64,0.00,,,0.00,Wunderground v.1.15,2013-03-09 01:27:00,
2013-03-08 19:33:00,41.7,30.0,30.33,ENE,63,4.0,4.0,63,0.00,,,0.00,Wunderground v.1.15,2013-03-09 01:33:00,
2013-03-08 19:38:00,41.9,29.8,30.33,ENE,62,4.0,4.0,62,0.00,,,0.00,Wunderground v.1.15,2013-03-09 01:38:00,
2013-03-08 19:44:00,42.0,30.3,30.33,ENE,63,4.0,4.0,63,0.00,,,0.00,Wunderground v.1.15,2013-03-09 01:44:00,
2013-03-08 19:49:00,41.8,30.1,30.33,ENE,63,4.0,4.0,63,0.00,,,0.00,Wunderground v.1.15,2013-03-09 01:49:00,
2013-03-08 19:55:00,41.5,29.8,30.33,ENE,61,3.0,4.0,63,0.00,,,0.00,Wunderground v.1.15,2013-03-09 01:55:00,
2013-03-08 20:00:00,41.3,29.6,30.33,ENE,65,3.0,4.0,63,0.00,,,0.00,Wunderground v.1.15,2013-03-09 02:00:00,
2013-03-08 20:06:00,41.3,29.6,30.33,ENE,64,3.0,4.0,63,0.00,,,0.00,Wunderground v.1.15,2013-03-09 02:06:00,
2013-03-08 20:11:00,41.3,29.3,30.33,ENE,68,3.0,3.0,62,0.00,,,0.00,Wunderground v.1.15,2013-03-09 02:11:00,
2013-03-08 20:16:00,41.3,29.3,30.33,ENE,62,3.0,4.0,62,0.00,,,0.00,Wunderground v.1.15,2013-03-09 02:16:00,
2013-03-08 20:21:00,41.3,29.3,30.33,ENE,65,3.0,3.0,62,0.00,,,0.00,Wunderground v.1.15,2013-03-09 02:21:00,
2013-03-08 20:26:00,41.3,29.6,30.33,ENE,67,3.0,4.0,63,0.00,,,0.00,Wunderground v.1.15,2013-03-09 02:26:00,
2013-03-08 20:32:00,41.3,29.3,30.33,ENE,63,3.0,4.0,62,0.00,,,0.00,Wunderground v.1.15,2013-03-09 02:32:00,
2013-03-08 20:37:00,41.1,29.5,30.33,ENE,59,4.0,5.0,63,0.00,,,0.00,Wunderground v.1.15,2013-03-09 02:37:00,
2013-03-08 20:42:00,40.4,29.6,30.33,ENE,65,4.0,4.0,65,0.00,,,0.00,Wunderground v.1.15,2013-03-09 02:42:00,
2013-03-08 20:47:00,40.0,29.2,30.33,ENE,65,4.0,4.0,65,0.00,,,0.00,Wunderground v.1.15,2013-03-09 02:47:00,
2013-03-08 20:53:00,40.1,29.3,30.32,ENE,61,4.0,4.0,65,0.00,,,0.00,Wunderground v.1.15,2013-03-09 02:53:00,
2013-03-08 20:58:00,40.2,29.4,30.33,ENE,57,4.0,4.0,65,0.00,,,0.00,Wunderground v.1.15,2013-03-09 02:58:00,
2013-03-08 21:04:00,40.3,29.5,30.33,ENE,65,3.0,4.0,65,0.00,,,0.00,Wunderground v.1.15,2013-03-09 03:04:00,
2013-03-08 21:09:00,40.2,29.4,30.32,ENE,65,3.0,4.0,65,0.00,,,0.00,Wunderground v.1.15,2013-03-09 03:09:00,